This is the latest recevied weather packets stored in our database for station/object W4RJG. If no packets are shown the sender has not sent any weather packets the latest 10 day(s).
| Time | Temp. | Humidity | Pressure | Rain* | Wind** | Luminosity | Snow |
|---|---|---|---|---|---|---|---|
| 1778083204 | 17.78° C | 92% | 1002.4 hPa | 1.52 mm | - | 0 W/m² | - |
| 1778077205 | 18.33° C | 77% | 1002 hPa | 0 mm | - | 0 W/m² | - |
| 1778075404 | 19.44° C | 68% | 1002 hPa | 0 mm | - | 0 W/m² | - |
| 1778073004 | 18.33° C | 73% | 1002 hPa | 0 mm | - | 0 W/m² | - |
| 1778070005 | 18.33° C | 72% | 1002 hPa | 0 mm | - | 0 W/m² | - |
| 1778068804 | 17.78° C | 72% | 1001.7 hPa | 0 mm | - | 0 W/m² | - |
| 1778068204 | 17.78° C | 71% | 1001.7 hPa | 0 mm | - | 0 W/m² | - |
| 1778067604 | 17.78° C | 72% | 1001.7 hPa | 0 mm | - | 0 W/m² | - |
| 1778067004 | 17.78° C | 71% | 1001.4 hPa | 0 mm | - | 0 W/m² | - |
| 1778065804 | 17.78° C | 71% | 1001.4 hPa | 0 mm | - | 0 W/m² | - |
| 1778057404 | 17.78° C | 74% | 1002 hPa | 0 mm | - | 0 W/m² | - |
| 1778056204 | 17.78° C | 73% | 1002 hPa | 0 mm | - | 0 W/m² | - |
| 1778054404 | 17.78° C | 75% | 1002 hPa | 0 mm | - | 0 W/m² | - |
| 1778049004 | 18.33° C | 74% | 1002 hPa | 0 mm | - | 0 W/m² | - |
| 1778047804 | 18.89° C | 73% | 1002.7 hPa | 0 mm | - | 0 W/m² | - |
| 1778036404 | 20.56° C | 59% | 1002.7 hPa | 0 mm | - | 0 W/m² | - |
| 1778030405 | 21.67° C | 54% | 1002 hPa | 0 mm | - | 0 W/m² | - |
| 1778029804 | 21.67° C | 54% | 1002 hPa | 0 mm | - | 0 W/m² | - |
| 1778028604 | 22.22° C | 51% | 1001.7 hPa | 0 mm | - | 0 W/m² | - |
| 1778028005 | 22.78° C | 50% | 1001.7 hPa | 0 mm | - | 0 W/m² | - |
| 1778024404 | 25.56° C | 42% | 1001.4 hPa | 0 mm | - | 0 W/m² | - |
| 1778023805 | 25.56° C | 43% | 1001.4 hPa | 0 mm | - | 0 W/m² | - |
| 1778020804 | 26.11° C | 42% | 1001.4 hPa | 0 mm | - | 0 W/m² | - |
| 1778018405 | 26.67° C | 40% | 1001.7 hPa | 0 mm | - | 0 W/m² | - |
| 1778015405 | 27.22° C | 38% | 1001.7 hPa | 0 mm | - | 0 W/m² | - |
* Rain latest hour (hover to see other rain measurements)
** Current wind speed in m/s (hover to see current wind gust speed)